| time (UTC) | temp C | wind direction | speed KPH | gust KPH | rain 1hr cm | rain 24hr cm | rain mn cm | humidity % | barometer mb |
| 20260510061147 | 15 | 270 | 0.0 | 1.6 | 0.00 | 0.00 | 0.00 | 85 | 1010.5 |
| 20260510060643 | 15 | 264 | 0.0 | 0.0 | 0.00 | 0.00 | 0.00 | 84 | 1010.6 |
| 20260510060139 | 15 | 262 | 0.0 | 1.6 | 0.00 | 0.00 | 0.00 | 84 | 1010.6 |
| 20260510055636 | 15 | 280 | 0.0 | 1.6 | 0.00 | 0.00 | 0.00 | 84 | 1010.4 |
| 20260510055134 | 15 | 266 | 0.0 | 0.0 | 0.00 | 0.00 | 0.00 | 84 | 1010.6 |
| 20260510054629 | 15 | 15 | 3.2 | 4.8 | 0.00 | 0.00 | 0.00 | 84 | 1010.5 |
| 20260510054125 | 15 | 280 | 0.0 | 0.0 | 0.00 | 0.00 | 0.00 | 84 | 1010.5 |
| 20260510053624 | 15 | 297 | 0.0 | 1.6 | 0.00 | 0.00 | 0.00 | 84 | 1010.6 |
| 20260510053121 | 15 | 258 | 0.0 | 0.0 | 0.00 | 0.00 | 0.00 | 83 | 1010.6 |
| 20260510052617 | 15 | 259 | 0.0 | 0.0 | 0.00 | 0.00 | 0.00 | 83 | 1010.6 |
| 20260510052114 | 15 | 287 | 0.0 | 1.6 | 0.00 | 0.00 | 0.00 | 82 | 1010.5 |
| 20260510051609 | 15 | 271 | 0.0 | 0.0 | 0.00 | 0.00 | 0.00 | 82 | 1010.4 |
| 20260510051106 | 15 | 255 | 0.0 | 0.0 | 0.00 | 0.00 | 0.00 | 81 | 1010.7 |
| 20260510050603 | 15 | 254 | 0.0 | 0.0 | 0.00 | 0.00 | 0.00 | 81 | 1010.5 |
| 20260510050100 | 16 | 287 | 0.0 | 1.6 | 0.00 | 0.00 | 0.00 | 80 | 1010.4 |
| 20260510045558 | 16 | 243 | 0.0 | 0.0 | 0.00 | 0.00 | 0.00 | 80 | 1010.5 |
| 20260510045053 | 16 | 231 | 1.6 | 1.6 | 0.00 | 0.00 | 0.00 | 80 | 1010.4 |
| 20260510044550 | 16 | 256 | 0.0 | 1.6 | 0.00 | 0.00 | 0.00 | 80 | 1010.4 |
| 20260510044048 | 16 | 260 | 0.0 | 0.0 | 0.00 | 0.00 | 0.00 | 80 | 1010.6 |
| 20260510043543 | 16 | 261 | 0.0 | 0.0 | 0.00 | 0.00 | 0.00 | 79 | 1010.5 |
| 20260510043039 | 16 | 283 | 0.0 | 0.0 | 0.00 | 0.00 | 0.00 | 79 | 1010.7 |
| 20260510042538 | 16 | 248 | 0.0 | 0.0 | 0.00 | 0.00 | 0.00 | 80 | 1010.7 |
| 20260510042034 | 16 | 269 | 0.0 | 1.6 | 0.00 | 0.00 | 0.00 | 79 | 1010.5 |
| 20260510041531 | 16 | 254 | 0.0 | 0.0 | 0.00 | 0.00 | 0.00 | 78 | 1010.4 |
| 20260510041029 | 16 | 254 | 0.0 | 0.0 | 0.00 | 0.00 | 0.00 | 78 | 1010.6 |
| 20260510040525 | 16 | 250 | 0.0 | 1.6 | 0.00 | 0.00 | 0.00 | 78 | 1010.6 |
| 20260510040021 | 16 | 282 | 1.6 | 1.6 | 0.00 | 0.00 | 0.00 | 77 | 1010.3 |
| 20260510035518 | 16 | 260 | 0.0 | 0.0 | 0.00 | 0.00 | 0.00 | 77 | 1010.2 |
| 20260510035017 | 16 | 243 | 0.0 | 0.0 | 0.00 | 0.00 | 0.00 | 77 | 1010.3 |
| 20260510034516 | 16 | 283 | 0.0 | 0.0 | 0.00 | 0.00 | 0.00 | 76 | 1010.5 |
| 20260510034012 | 16 | 266 | 0.0 | 0.0 | 0.00 | 0.00 | 0.00 | 76 | 1010.3 |
| 20260510033508 | 16 | 273 | 1.6 | 1.6 | 0.00 | 0.00 | 0.00 | 75 | 1010.6 |
| 20260510033006 | 17 | 281 | 0.0 | 1.6 | 0.00 | 0.00 | 0.00 | 75 | 1010.4 |
| 20260510032503 | 17 | 264 | 1.6 | 1.6 | 0.00 | 0.00 | 0.00 | 74 | 1010.4 |
| 20260510032003 | 17 | 45 | 3.2 | 3.2 | 0.00 | 0.00 | 0.00 | 73 | 1010.3 |
| 20260510031458 | 17 | 294 | 1.6 | 1.6 | 0.00 | 0.00 | 0.00 | 73 | 1010.5 |
| 20260510030954 | 17 | 292 | 1.6 | 1.6 | 0.00 | 0.00 | 0.00 | 73 | 1010.4 |
| 20260510030450 | 17 | 257 | 0.0 | 0.0 | 0.00 | 0.00 | 0.00 | 72 | 1010.3 |
| 20260510025947 | 17 | 254 | 0.0 | 0.0 | 0.00 | 0.00 | 0.00 | 72 | 1010.3 |
| 20260510025444 | 18 | 288 | 1.6 | 3.2 | 0.00 | 0.00 | 0.00 | 71 | 1010.1 |
| 20260510024942 | 18 | 324 | 3.2 | 3.2 | 0.00 | 0.00 | 0.00 | 70 | 1010.0 |
| 20260510024438 | 18 | 20 | 1.6 | 3.2 | 0.00 | 0.00 | 0.00 | 70 | 1010.1 |
| 20260510023934 | 18 | 345 | 1.6 | 3.2 | 0.00 | 0.00 | 0.00 | 69 | 1010.2 |
| 20260510023431 | 18 | 260 | 0.0 | 0.0 | 0.00 | 0.00 | 0.00 | 69 | 1010.1 |
| 20260510022928 | 18 | 36 | 3.2 | 3.2 | 0.00 | 0.00 | 0.00 | 68 | 1010.1 |
| 20260510022427 | 18 | 294 | 1.6 | 1.6 | 0.00 | 0.00 | 0.00 | 68 | 1010.1 |
| 20260510021926 | 19 | 263 | 1.6 | 1.6 | 0.00 | 0.00 | 0.00 | 68 | 1010.0 |
| 20260510021424 | 19 | 130 | 1.6 | 1.6 | 0.00 | 0.00 | 0.00 | 68 | 1009.9 |
| 20260510020921 | 19 | 261 | 1.6 | 1.6 | 0.00 | 0.00 | 0.00 | 68 | 1009.9 |
| 20260510020421 | 18 | 279 | 0.0 | 0.0 | 0.00 | 0.00 | 0.00 | 68 | 1009.9 |
| 20260510015917 | 18 | 245 | 0.0 | 0.0 | 0.00 | 0.00 | 0.00 | 68 | 1009.8 |
| 20260510015413 | 18 | 258 | 0.0 | 0.0 | 0.00 | 0.00 | 0.00 | 68 | 1009.9 |
| 20260510014908 | 18 | 239 | 0.0 | 0.0 | 0.00 | 0.00 | 0.00 | 68 | 1009.8 |
| 20260510014406 | 18 | 257 | 0.0 | 0.0 | 0.00 | 0.00 | 0.00 | 68 | 1009.8 |
| 20260510013902 | 18 | 255 | 0.0 | 0.0 | 0.00 | 0.00 | 0.00 | 68 | 1009.6 |
| 20260510013357 | 19 | 250 | 1.6 | 1.6 | 0.00 | 0.00 | 0.00 | 67 | 1009.6 |
| 20260510012852 | 19 | 168 | 1.6 | 3.2 | 0.00 | 0.00 | 0.00 | 67 | 1009.5 |
| 20260510012347 | 19 | 293 | 1.6 | 1.6 | 0.00 | 0.00 | 0.00 | 67 | 1009.4 |
| 20260510011842 | 19 | 193 | 3.2 | 3.2 | 0.00 | 0.00 | 0.00 | 67 | 1009.3 |
| 20260510011338 | 19 | 271 | 0.0 | 0.0 | 0.00 | 0.00 | 0.00 | 67 | 1009.1 |
| 20260510010834 | 19 | 25 | 1.6 | 3.2 | 0.00 | 0.00 | 0.00 | 67 | 1009.1 |
| 20260510010332 | 20 | 47 | 3.2 | 4.8 | 0.00 | 0.00 | 0.00 | 66 | 1009.1 |
| 20260510005828 | 20 | 53 | 4.8 | 4.8 | 0.00 | 0.00 | 0.00 | 66 | 1008.9 |
| 20260510005324 | 20 | 321 | 3.2 | 3.2 | 0.00 | 0.00 | 0.00 | 65 | 1009.0 |
| 20260510004822 | 20 | 12 | 1.6 | 1.6 | 0.00 | 0.00 | 0.00 | 64 | 1009.1 |
| 20260510004320 | 20 | 268 | 1.6 | 1.6 | 0.00 | 0.00 | 0.00 | 63 | 1008.8 |
| 20260510003817 | 20 | 26 | 4.8 | 4.8 | 0.00 | 0.00 | 0.00 | 62 | 1008.9 |
| 20260510003314 | 20 | 345 | 1.6 | 1.6 | 0.00 | 0.00 | 0.00 | 60 | 1008.7 |
| 20260510002813 | 21 | 268 | 0.0 | 1.6 | 0.00 | 0.00 | 0.00 | 56 | 1008.8 |
| 20260510002310 | 21 | 256 | 0.0 | 0.0 | 0.00 | 0.00 | 0.00 | 55 | 1008.7 |
| 20260510001806 | 21 | 243 | 1.6 | 1.6 | 0.00 | 0.00 | 0.00 | 54 | 1008.7 |
| 20260510001305 | 22 | 240 | 0.0 | 0.0 | 0.00 | 0.00 | 0.00 | 53 | 1008.7 |
| 20260510000800 | 22 | 229 | 1.6 | 1.6 | 0.00 | 0.00 | 0.00 | 52 | 1008.5 |
| 20260510000258 | 22 | 242 | 0.0 | 1.6 | 0.00 | 0.00 | 0.00 | 51 | 1008.7 |
| 20260509235755 | 22 | 246 | 0.0 | 0.0 | 0.00 | 0.00 | 0.00 | 51 | 1008.6 |
| 20260509235251 | 22 | 235 | 1.6 | 1.6 | 0.00 | 0.00 | 0.00 | 51 | 1008.7 |
| 20260509234747 | 22 | 220 | 1.6 | 1.6 | 0.00 | 0.00 | 0.00 | 50 | 1008.5 |
| 20260509234244 | 22 | 245 | 1.6 | 1.6 | 0.00 | 0.00 | 0.00 | 50 | 1008.3 |
| 20260509233743 | 22 | 223 | 1.6 | 1.6 | 0.00 | 0.00 | 0.00 | 50 | 1008.5 |
| 20260509233240 | 22 | 249 | 0.0 | 0.0 | 0.00 | 0.00 | 0.00 | 50 | 1008.3 |
| 20260509232736 | 22 | 240 | 1.6 | 1.6 | 0.00 | 0.00 | 0.00 | 50 | 1008.2 |
| 20260509232233 | 22 | 234 | 1.6 | 1.6 | 0.00 | 0.00 | 0.00 | 50 | 1008.4 |
| 20260509231729 | 23 | 224 | 3.2 | 4.8 | 0.00 | 0.00 | 0.00 | 50 | 1008.3 |
| 20260509231226 | 22 | 244 | 1.6 | 1.6 | 0.00 | 0.00 | 0.00 | 50 | 1008.2 |
| 20260509230724 | 22 | 194 | 6.4 | 6.4 | 0.00 | 0.00 | 0.00 | 50 | 1008.2 |
| 20260509230221 | 22 | 145 | 4.8 | 4.8 | 0.00 | 0.00 | 0.00 | 50 | 1008.4 |
| 20260509225716 | 22 | 225 | 1.6 | 1.6 | 0.00 | 0.00 | 0.00 | 50 | 1008.4 |
| 20260509225212 | 22 | 224 | 1.6 | 1.6 | 0.00 | 0.00 | 0.00 | 50 | 1008.4 |
| 20260509224708 | 23 | 170 | 4.8 | 4.8 | 0.00 | 0.00 | 0.00 | 49 | 1008.3 |
| 20260509224205 | 23 | 247 | 1.6 | 1.6 | 0.00 | 0.00 | 0.00 | 50 | 1008.3 |
| 20260509223702 | 23 | 271 | 3.2 | 4.8 | 0.00 | 0.00 | 0.00 | 49 | 1008.2 |
| 20260509223159 | 23 | 243 | 1.6 | 3.2 | 0.00 | 0.00 | 0.00 | 49 | 1008.3 |
| 20260509222656 | 23 | 207 | 6.4 | 9.7 | 0.00 | 0.00 | 0.00 | 49 | 1008.3 |
| 20260509222152 | 23 | 179 | 6.4 | 6.4 | 0.00 | 0.00 | 0.00 | 49 | 1008.3 |
| 20260509221647 | 23 | 254 | 4.8 | 6.4 | 0.00 | 0.00 | 0.00 | 49 | 1008.3 |
| 20260509221143 | 23 | 201 | 4.8 | 4.8 | 0.00 | 0.00 | 0.00 | 49 | 1008.4 |
| 20260509220639 | 23 | 154 | 3.2 | 4.8 | 0.00 | 0.00 | 0.00 | 47 | 1008.3 |
| 20260509220136 | 24 | 179 | 4.8 | 4.8 | 0.00 | 0.00 | 0.00 | 46 | 1008.4 |
| 20260509215632 | 24 | 247 | 8.0 | 11.3 | 0.00 | 0.00 | 0.00 | 46 | 1008.5 |
| 20260509215129 | 23 | 255 | 1.6 | 3.2 | 0.00 | 0.00 | 0.00 | 46 | 1008.4 |
| 20260509214626 | 23 | 262 | 3.2 | 3.2 | 0.00 | 0.00 | 0.00 | 47 | 1008.5 |
| 20260509214123 | 23 | 252 | 6.4 | 9.7 | 0.00 | 0.00 | 0.00 | 47 | 1008.4 |
| 20260509213619 | 25 | 254 | 4.8 | 4.8 | 0.00 | 0.00 | 0.00 | 45 | 1008.4 |
| 20260509213115 | 24 | 225 | 4.8 | 4.8 | 0.00 | 0.00 | 0.00 | 45 | 1008.4 |
| 20260509212613 | 23 | 276 | 3.2 | 3.2 | 0.00 | 0.00 | 0.00 | 46 | 1008.3 |
| 20260509212110 | 24 | 179 | 6.4 | 9.7 | 0.00 | 0.00 | 0.00 | 46 | 1008.3 |
| 20260509211605 | 24 | 216 | 4.8 | 6.4 | 0.00 | 0.00 | 0.00 | 45 | 1008.5 |
| 20260509211102 | 24 | 135 | 4.8 | 6.4 | 0.00 | 0.00 | 0.00 | 46 | 1008.3 |
| 20260509210553 | 24 | 232 | 4.8 | 6.4 | 0.00 | 0.00 | 0.00 | 46 | 1008.3 |
| 20260509210050 | 24 | 112 | 4.8 | 9.7 | 0.00 | 0.00 | 0.00 | 46 | 1008.3 |
| 20260509205543 | 23 | 285 | 8.0 | 11.3 | 0.00 | 0.00 | 0.00 | 47 | 1008.1 |
| 20260509205039 | 23 | 303 | 3.2 | 4.8 | 0.00 | 0.00 | 0.00 | 48 | 1008.5 |
| 20260509204536 | 23 | 238 | 4.8 | 6.4 | 0.00 | 0.00 | 0.00 | 48 | 1008.1 |
| 20260509204032 | 23 | 231 | 4.8 | 4.8 | 0.00 | 0.00 | 0.00 | 49 | 1008.3 |
| 20260509203528 | 23 | 230 | 1.6 | 1.6 | 0.00 | 0.00 | 0.00 | 49 | 1008.1 |
| 20260509203027 | 23 | 233 | 3.2 | 3.2 | 0.00 | 0.00 | 0.00 | 49 | 1008.2 |
| 20260509202527 | 23 | 213 | 4.8 | 6.4 | 0.00 | 0.00 | 0.00 | 48 | 1008.1 |
| 20260509202022 | 24 | 195 | 6.4 | 9.7 | 0.00 | 0.00 | 0.00 | 47 | 1008.2 |
| 20260509201517 | 24 | 252 | 6.4 | 9.7 | 0.00 | 0.00 | 0.00 | 46 | 1008.4 |
| 20260509201015 | 24 | 309 | 3.2 | 6.4 | 0.00 | 0.00 | 0.00 | 47 | 1008.2 |
| 20260509200510 | 23 | 258 | 8.0 | 11.3 | 0.00 | 0.00 | 0.00 | 48 | 1008.6 |
| 20260509200007 | 23 | 256 | 8.0 | 11.3 | 0.00 | 0.00 | 0.00 | 48 | 1008.5 |
| 20260509195502 | 23 | 257 | 3.2 | 3.2 | 0.00 | 0.00 | 0.00 | 50 | 1008.5 |
| 20260509195001 | 23 | 352 | 1.6 | 3.2 | 0.00 | 0.00 | 0.00 | 49 | 1009.0 |
| 20260509194457 | 22 | 258 | 3.2 | 6.4 | 0.00 | 0.00 | 0.00 | 50 | 1008.9 |
| 20260509193955 | 22 | 249 | 11.3 | 12.9 | 0.00 | 0.00 | 0.00 | 50 | 1008.9 |
| 20260509193454 | 22 | 306 | 6.4 | 9.7 | 0.00 | 0.00 | 0.00 | 52 | 1009.2 |
| 20260509192950 | 21 | 270 | 9.7 | 14.5 | 0.00 | 0.00 | 0.00 | 52 | 1009.3 |
| 20260509192447 | 22 | 316 | 11.3 | 14.5 | 0.00 | 0.00 | 0.00 | 53 | 1009.4 |
| 20260509191942 | 21 | 224 | 9.7 | 11.3 | 0.00 | 0.00 | 0.00 | 55 | 1009.3 |
| 20260509191438 | 21 | 266 | 4.8 | 9.7 | 0.00 | 0.00 | 0.00 | 57 | 1009.3 |
| 20260509190934 | 21 | 265 | 3.2 | 3.2 | 0.00 | 0.00 | 0.00 | 59 | 1009.3 |
| 20260509190431 | 20 | 241 | 3.2 | 4.8 | 0.00 | 0.00 | 0.00 | 59 | 1009.2 |
| 20260509185929 | 20 | 281 | 8.0 | 11.3 | 0.00 | 0.00 | 0.00 | 60 | 1009.3 |
| 20260509185426 | 20 | 244 | 6.4 | 9.7 | 0.00 | 0.00 | 0.00 | 59 | 1009.3 |
| 20260509184922 | 20 | 241 | 4.8 | 4.8 | 0.00 | 0.00 | 0.00 | 60 | 1009.3 |
| 20260509184420 | 20 | 254 | 4.8 | 4.8 | 0.00 | 0.00 | 0.00 | 63 | 1009.6 |
| 20260509183916 | 20 | 229 | 1.6 | 3.2 | 0.00 | 0.00 | 0.00 | 64 | 1009.9 |
| 20260509183411 | 20 | 245 | 3.2 | 4.8 | 0.00 | 0.00 | 0.00 | 62 | 1009.7 |
| 20260509182909 | 20 | 197 | 1.6 | 1.6 | 0.00 | 0.00 | 0.00 | 62 | 1009.7 |
| 20260509182405 | 20 | 235 | 8.0 | 12.9 | 0.00 | 0.00 | 0.00 | 60 | 1009.8 |
| 20260509181903 | 20 | 186 | 3.2 | 3.2 | 0.00 | 0.00 | 0.00 | 60 | 1010.0 |
| 20260509181400 | 21 | 190 | 6.4 | 12.9 | 0.00 | 0.00 | 0.00 | 56 | 1009.8 |
| 20260509180857 | 21 | 209 | 1.6 | 4.8 | 0.00 | 0.00 | 0.00 | 52 | 1010.1 |
| 20260509180352 | 21 | 236 | 3.2 | 3.2 | 0.00 | 0.00 | 0.00 | 51 | 1009.9 |
| 20260509175849 | 21 | 172 | 6.4 | 9.7 | 0.00 | 0.00 | 0.00 | 51 | 1010.1 |
| 20260509175345 | 21 | 251 | 6.4 | 12.9 | 0.00 | 0.00 | 0.00 | 51 | 1010.1 |
| 20260509174841 | 21 | 221 | 3.2 | 6.4 | 0.00 | 0.00 | 0.00 | 51 | 1010.0 |
| 20260509174337 | 21 | 222 | 11.3 | 12.9 | 0.00 | 0.00 | 0.00 | 50 | 1010.0 |
| 20260509173833 | 21 | 87 | 9.7 | 14.5 | 0.00 | 0.00 | 0.00 | 49 | 1010.1 |
| 20260509173329 | 21 | 162 | 6.4 | 11.3 | 0.00 | 0.00 | 0.00 | 49 | 1010.2 |
| 20260509172825 | 21 | 260 | 4.8 | 4.8 | 0.00 | 0.00 | 0.00 | 49 | 1010.2 |
| 20260509172322 | 21 | 257 | 6.4 | 9.7 | 0.00 | 0.00 | 0.00 | 50 | 1010.3 |
| 20260509171819 | 21 | 256 | 3.2 | 4.8 | 0.00 | 0.00 | 0.00 | 50 | 1010.4 |
| 20260509171314 | 21 | 226 | 3.2 | 4.8 | 0.00 | 0.00 | 0.00 | 50 | 1010.3 |
| 20260509170811 | 21 | 253 | 3.2 | 3.2 | 0.00 | 0.00 | 0.00 | 50 | 1010.3 |
| 20260509170306 | 21 | 248 | 8.0 | 11.3 | 0.00 | 0.00 | 0.00 | 51 | 1010.6 |
| 20260509165806 | 21 | 246 | 9.7 | 12.9 | 0.00 | 0.00 | 0.00 | 51 | 1010.4 |
| 20260509165301 | 21 | 270 | 9.7 | 12.9 | 0.00 | 0.00 | 0.00 | 51 | 1010.6 |
| 20260509164757 | 21 | 215 | 6.4 | 11.3 | 0.00 | 0.00 | 0.00 | 50 | 1010.7 |
| 20260509164253 | 20 | 250 | 12.9 | 14.5 | 0.00 | 0.00 | 0.00 | 52 | 1010.5 |
| 20260509163750 | 20 | 233 | 4.8 | 4.8 | 0.00 | 0.00 | 0.00 | 52 | 1010.7 |
| 20260509163246 | 20 | 261 | 1.6 | 3.2 | 0.00 | 0.00 | 0.00 | 53 | 1010.7 |
| 20260509162746 | 20 | 268 | 1.6 | 3.2 | 0.00 | 0.00 | 0.00 | 53 | 1010.7 |
| 20260509162245 | 20 | 271 | 3.2 | 4.8 | 0.00 | 0.00 | 0.00 | 53 | 1010.7 |
| 20260509161741 | 20 | 234 | 4.8 | 6.4 | 0.00 | 0.00 | 0.00 | 53 | 1010.8 |
| 20260509161237 | 20 | 266 | 14.5 | 14.5 | 0.00 | 0.00 | 0.00 | 54 | 1010.8 |
| 20260509160732 | 20 | 253 | 4.8 | 6.4 | 0.00 | 0.00 | 0.00 | 54 | 1010.8 |
| 20260509160229 | 20 | 248 | 6.4 | 11.3 | 0.00 | 0.00 | 0.00 | 54 | 1010.6 |
| 20260509155724 | 20 | 292 | 4.8 | 9.7 | 0.00 | 0.00 | 0.00 | 54 | 1011.0 |
| 20260509155221 | 20 | 259 | 9.7 | 12.9 | 0.00 | 0.00 | 0.00 | 53 | 1011.0 |
| 20260509154717 | 20 | 288 | 3.2 | 3.2 | 0.00 | 0.00 | 0.00 | 53 | 1011.0 |
| 20260509154214 | 20 | 254 | 3.2 | 4.8 | 0.00 | 0.00 | 0.00 | 52 | 1011.1 |
| 20260509153712 | 20 | 313 | 9.7 | 14.5 | 0.00 | 0.00 | 0.00 | 51 | 1011.0 |
| 20260509153208 | 20 | 254 | 4.8 | 9.7 | 0.00 | 0.00 | 0.00 | 52 | 1011.1 |
| 20260509152704 | 20 | 220 | 4.8 | 6.4 | 0.00 | 0.00 | 0.00 | 52 | 1011.0 |
| 20260509152201 | 20 | 270 | 9.7 | 14.5 | 0.00 | 0.00 | 0.00 | 53 | 1010.7 |
| 20260509151657 | 20 | 262 | 6.4 | 11.3 | 0.00 | 0.00 | 0.00 | 54 | 1011.2 |
| 20260509151154 | 20 | 208 | 14.5 | 17.7 | 0.00 | 0.00 | 0.00 | 53 | 1011.3 |
| 20260509150652 | 19 | 247 | 6.4 | 6.4 | 0.00 | 0.00 | 0.00 | 54 | 1011.2 |
| 20260509150150 | 19 | 265 | 8.0 | 12.9 | 0.00 | 0.00 | 0.00 | 54 | 1011.1 |
| 20260509145646 | 18 | 263 | 3.2 | 6.4 | 0.00 | 0.00 | 0.00 | 55 | 1011.4 |
| 20260509145142 | 18 | 277 | 4.8 | 6.4 | 0.00 | 0.00 | 0.00 | 58 | 1011.6 |
| 20260509144638 | 17 | 262 | 4.8 | 6.4 | 0.00 | 0.00 | 0.00 | 58 | 1011.5 |
| 20260509144136 | 17 | 255 | 9.7 | 12.9 | 0.00 | 0.00 | 0.00 | 58 | 1011.6 |
| 20260509143633 | 17 | 261 | 8.0 | 9.7 | 0.00 | 0.00 | 0.00 | 58 | 1011.7 |
| 20260509143130 | 17 | 267 | 3.2 | 4.8 | 0.00 | 0.00 | 0.00 | 58 | 1011.9 |
| 20260509142626 | 17 | 242 | 6.4 | 6.4 | 0.00 | 0.00 | 0.00 | 59 | 1011.9 |
| 20260509142122 | 17 | 261 | 4.8 | 6.4 | 0.00 | 0.00 | 0.00 | 60 | 1011.8 |
| 20260509141618 | 17 | 299 | 3.2 | 3.2 | 0.00 | 0.00 | 0.00 | 60 | 1011.9 |
| 20260509141115 | 16 | 138 | 1.6 | 3.2 | 0.00 | 0.00 | 0.00 | 61 | 1011.8 |
| 20260509140612 | 16 | 266 | 1.6 | 3.2 | 0.00 | 0.00 | 0.00 | 61 | 1011.8 |
| 20260509140110 | 16 | 254 | 3.2 | 4.8 | 0.00 | 0.00 | 0.00 | 61 | 1011.7 |
| 20260509135607 | 16 | 260 | 6.4 | 9.7 | 0.00 | 0.00 | 0.00 | 60 | 1011.8 |
| 20260509135105 | 16 | 240 | 9.7 | 12.9 | 0.00 | 0.00 | 0.00 | 59 | 1011.8 |
| 20260509134601 | 16 | 250 | 0.0 | 1.6 | 0.00 | 0.00 | 0.00 | 61 | 1012.0 |
| 20260509134059 | 16 | 260 | 4.8 | 6.4 | 0.00 | 0.00 | 0.00 | 61 | 1011.8 |
| 20260509133555 | 16 | 235 | 3.2 | 4.8 | 0.00 | 0.00 | 0.00 | 60 | 1011.7 |
| 20260509133053 | 16 | 252 | 4.8 | 6.4 | 0.00 | 0.00 | 0.00 | 61 | 1011.8 |
| 20260509132551 | 16 | 232 | 6.4 | 6.4 | 0.00 | 0.00 | 0.00 | 62 | 1011.9 |
| 20260509132049 | 16 | 260 | 4.8 | 4.8 | 0.00 | 0.00 | 0.00 | 61 | 1012.0 |
| 20260509131545 | 16 | 237 | 3.2 | 3.2 | 0.00 | 0.00 | 0.00 | 61 | 1012.0 |
| 20260509131042 | 16 | 239 | 4.8 | 9.7 | 0.00 | 0.00 | 0.00 | 61 | 1012.0 |
| 20260509130537 | 16 | 269 | 12.9 | 16.1 | 0.00 | 0.00 | 0.00 | 61 | 1011.7 |
| 20260509130035 | 16 | 212 | 6.4 | 9.7 | 0.00 | 0.00 | 0.00 | 61 | 1011.9 |
| 20260509125531 | 16 | 174 | 12.9 | 17.7 | 0.00 | 0.00 | 0.00 | 61 | 1011.8 |
| 20260509125028 | 16 | 314 | 9.7 | 12.9 | 0.00 | 0.00 | 0.00 | 61 | 1011.8 |
| 20260509124525 | 16 | 218 | 11.3 | 12.9 | 0.00 | 0.00 | 0.00 | 60 | 1011.7 |
| 20260509124022 | 15 | 250 | 9.7 | 14.5 | 0.00 | 0.00 | 0.00 | 61 | 1011.7 |
| 20260509123520 | 15 | 222 | 8.0 | 9.7 | 0.00 | 0.00 | 0.00 | 61 | 1011.8 |
| 20260509123015 | 15 | 241 | 3.2 | 6.4 | 0.00 | 0.00 | 0.00 | 61 | 1011.4 |
| 20260509122512 | 15 | 240 | 1.6 | 3.2 | 0.00 | 0.00 | 0.00 | 61 | 1011.8 |
| 20260509122009 | 15 | 216 | 3.2 | 4.8 | 0.00 | 0.00 | 0.00 | 61 | 1011.7 |
| 20260509121506 | 15 | 220 | 4.8 | 4.8 | 0.00 | 0.00 | 0.00 | 60 | 1011.8 |
| 20260509121004 | 15 | 258 | 8.0 | 9.7 | 0.00 | 0.00 | 0.00 | 61 | 1011.9 |
| 20260509120501 | 15 | 152 | 6.4 | 11.3 | 0.00 | 0.00 | 0.00 | 60 | 1011.8 |
| 20260509115959 | 15 | 107 | 4.8 | 4.8 | 0.00 | 0.00 | 0.00 | 60 | 1011.7 |
| 20260509115456 | 15 | 93 | 4.8 | 4.8 | 0.00 | 0.00 | 0.00 | 60 | 1011.9 |
| 20260509114954 | 15 | 235 | 3.2 | 4.8 | 0.00 | 0.00 | 0.00 | 59 | 1011.8 |
| 20260509114452 | 15 | 77 | 9.7 | 12.9 | 0.00 | 0.00 | 0.00 | 58 | 1011.9 |
| 20260509113951 | 15 | 199 | 6.4 | 12.9 | 0.00 | 0.00 | 0.00 | 57 | 1011.8 |
| 20260509113448 | 15 | 152 | 6.4 | 11.3 | 0.00 | 0.00 | 0.00 | 57 | 1011.7 |
| 20260509112944 | 15 | 193 | 4.8 | 9.7 | 0.00 | 0.00 | 0.00 | 56 | 1011.6 |
| 20260509112442 | 15 | 128 | 6.4 | 6.4 | 0.00 | 0.00 | 0.00 | 56 | 1011.6 |
| 20260509111938 | 15 | 226 | 3.2 | 4.8 | 0.00 | 0.00 | 0.00 | 56 | 1011.8 |
| 20260509111436 | 15 | 176 | 3.2 | 4.8 | 0.00 | 0.00 | 0.00 | 56 | 1011.7 |
| 20260509110933 | 15 | 216 | 6.4 | 6.4 | 0.00 | 0.00 | 0.00 | 56 | 1011.6 |
| 20260509110429 | 15 | 155 | 9.7 | 14.5 | 0.00 | 0.00 | 0.00 | 56 | 1011.5 |
| 20260509105927 | 15 | 212 | 6.4 | 12.9 | 0.00 | 0.00 | 0.00 | 56 | 1011.7 |
| 20260509105426 | 15 | 242 | 1.6 | 3.2 | 0.00 | 0.00 | 0.00 | 55 | 1011.5 |
| 20260509104922 | 15 | 225 | 8.0 | 12.9 | 0.00 | 0.00 | 0.00 | 55 | 1011.7 |
| 20260509104419 | 16 | 158 | 6.4 | 6.4 | 0.00 | 0.00 | 0.00 | 55 | 1011.4 |
| 20260509103917 | 15 | 272 | 4.8 | 6.4 | 0.00 | 0.00 | 0.00 | 53 | 1011.5 |
| 20260509103413 | 15 | 227 | 8.0 | 11.3 | 0.00 | 0.00 | 0.00 | 52 | 1011.4 |
| 20260509102912 | 15 | 254 | 6.4 | 12.9 | 0.00 | 0.00 | 0.00 | 51 | 1011.2 |
| 20260509102409 | 15 | 234 | 3.2 | 3.2 | 0.00 | 0.00 | 0.00 | 51 | 1011.4 |
| 20260509101905 | 15 | 233 | 8.0 | 12.9 | 0.00 | 0.00 | 0.00 | 51 | 1011.2 |
| 20260509101401 | 15 | 227 | 3.2 | 3.2 | 0.00 | 0.00 | 0.00 | 51 | 1011.3 |
| 20260509100859 | 15 | 254 | 4.8 | 4.8 | 0.00 | 0.00 | 0.00 | 51 | 1011.1 |
| 20260509100356 | 15 | 229 | 3.2 | 9.7 | 0.00 | 0.00 | 0.00 | 51 | 1011.2 |
| 20260509095852 | 15 | 280 | 4.8 | 4.8 | 0.00 | 0.00 | 0.00 | 51 | 1011.2 |
| 20260509095350 | 15 | 191 | 6.4 | 6.4 | 0.00 | 0.00 | 0.00 | 51 | 1011.1 |
| 20260509094847 | 15 | 234 | 1.6 | 1.6 | 0.00 | 0.00 | 0.00 | 51 | 1011.2 |
| 20260509094343 | 16 | 251 | 0.0 | 1.6 | 0.00 | 0.00 | 0.00 | 50 | 1011.0 |
| 20260509093841 | 16 | 260 | 1.6 | 1.6 | 0.00 | 0.00 | 0.00 | 50 | 1011.1 |
| 20260509093338 | 16 | 216 | 3.2 | 4.8 | 0.00 | 0.00 | 0.00 | 50 | 1011.1 |
| 20260509092837 | 16 | 231 | 3.2 | 4.8 | 0.00 | 0.00 | 0.00 | 50 | 1011.2 |
| 20260509092334 | 16 | 251 | 3.2 | 3.2 | 0.00 | 0.00 | 0.00 | 50 | 1011.1 |
| 20260509091832 | 16 | 234 | 3.2 | 3.2 | 0.00 | 0.00 | 0.00 | 51 | 1011.3 |
| 20260509091329 | 16 | 248 | 1.6 | 1.6 | 0.00 | 0.00 | 0.00 | 51 | 1011.3 |
| 20260509090826 | 16 | 135 | 3.2 | 4.8 | 0.00 | 0.00 | 0.00 | 51 | 1011.4 |
| 20260509090323 | 16 | 225 | 3.2 | 4.8 | 0.00 | 0.00 | 0.00 | 51 | 1011.5 |
| 20260509085820 | 16 | 235 | 1.6 | 1.6 | 0.00 | 0.00 | 0.00 | 51 | 1011.4 |
| 20260509085318 | 16 | 187 | 3.2 | 3.2 | 0.00 | 0.00 | 0.00 | 51 | 1011.5 |
| 20260509084814 | 16 | 299 | 4.8 | 6.4 | 0.00 | 0.00 | 0.00 | 50 | 1011.4 |
| 20260509084311 | 15 | 278 | 4.8 | 6.4 | 0.00 | 0.00 | 0.00 | 52 | 1011.5 |
| 20260509083809 | 15 | 260 | 1.6 | 3.2 | 0.00 | 0.00 | 0.00 | 53 | 1011.5 |
| 20260509083305 | 15 | 233 | 4.8 | 4.8 | 0.00 | 0.00 | 0.00 | 53 | 1011.7 |
| 20260509082802 | 15 | 242 | 1.6 | 1.6 | 0.00 | 0.00 | 0.00 | 53 | 1011.6 |
| 20260509082258 | 15 | 253 | 3.2 | 4.8 | 0.00 | 0.00 | 0.00 | 53 | 1011.6 |
| 20260509081755 | 15 | 251 | 6.4 | 6.4 | 0.00 | 0.00 | 0.00 | 54 | 1011.7 |
| 20260509081253 | 15 | 255 | 0.0 | 1.6 | 0.00 | 0.00 | 0.00 | 54 | 1011.8 |
| 20260509080751 | 15 | 52 | 3.2 | 4.8 | 0.00 | 0.00 | 0.00 | 53 | 1011.7 |
| 20260509080248 | 15 | 260 | 3.2 | 4.8 | 0.00 | 0.00 | 0.00 | 53 | 1011.9 |
| 20260509075747 | 15 | 173 | 3.2 | 6.4 | 0.00 | 0.00 | 0.00 | 53 | 1011.8 |
| 20260509075244 | 15 | 218 | 3.2 | 4.8 | 0.00 | 0.00 | 0.00 | 52 | 1012.0 |
| 20260509074740 | 15 | 255 | 4.8 | 6.4 | 0.00 | 0.00 | 0.00 | 52 | 1012.0 |
| 20260509074238 | 15 | 240 | 6.4 | 11.3 | 0.00 | 0.00 | 0.00 | 52 | 1012.1 |
| 20260509073734 | 15 | 184 | 3.2 | 4.8 | 0.00 | 0.00 | 0.00 | 52 | 1012.0 |
| 20260509073231 | 15 | 161 | 4.8 | 4.8 | 0.00 | 0.00 | 0.00 | 53 | 1012.4 |
| 20260509072727 | 15 | 242 | 0.0 | 1.6 | 0.00 | 0.00 | 0.00 | 53 | 1012.0 |
| 20260509072224 | 15 | 235 | 1.6 | 1.6 | 0.00 | 0.00 | 0.00 | 53 | 1012.0 |
| 20260509071721 | 15 | 222 | 1.6 | 3.2 | 0.00 | 0.00 | 0.00 | 53 | 1011.9 |
| 20260509071218 | 15 | 238 | 3.2 | 6.4 | 0.00 | 0.00 | 0.00 | 53 | 1012.0 |
| 20260509070715 | 15 | 228 | 1.6 | 3.2 | 0.00 | 0.00 | 0.00 | 52 | 1012.2 |
| 20260509070211 | 15 | 247 | 6.4 | 9.7 | 0.00 | 0.00 | 0.00 | 52 | 1011.8 |
| 20260509065708 | 15 | 191 | 4.8 | 4.8 | 0.00 | 0.00 | 0.00 | 52 | 1012.0 |
| 20260509065204 | 15 | 184 | 6.4 | 11.3 | 0.00 | 0.00 | 0.00 | 52 | 1012.3 |
| 20260509064700 | 15 | 209 | 3.2 | 4.8 | 0.00 | 0.00 | 0.00 | 52 | 1012.2 |
| 20260509064158 | 15 | 225 | 1.6 | 3.2 | 0.00 | 0.00 | 0.00 | 52 | 1012.3 |
| 20260509063655 | 15 | 206 | 4.8 | 6.4 | 0.00 | 0.00 | 0.00 | 52 | 1012.4 |
| 20260509063152 | 15 | 225 | 1.6 | 3.2 | 0.00 | 0.00 | 0.00 | 52 | 1012.2 |
| 20260509062649 | 15 | 152 | 3.2 | 4.8 | 0.00 | 0.00 | 0.00 | 51 | 1012.4 |
| 20260509062146 | 15 | 227 | 3.2 | 4.8 | 0.00 | 0.00 | 0.00 | 51 | 1012.5 |
| 20260509061643 | 15 | 222 | 3.2 | 3.2 | 0.00 | 0.00 | 0.00 | 51 | 1012.6 |